sensor_id;sensor_type;location;lat;lon;timestamp;pressure;altitude;pressure_sealevel;temperature;humidity
9110;BME280;4590;51.462;6.692;2023-05-18T00:01:09;102536.75;;;10.48;50.61
9110;BME280;4590;51.462;6.692;2023-05-18T00:03:36;102534.88;;;10.53;49.05
9110;BME280;4590;51.462;6.692;2023-05-18T00:06:02;102533.22;;;10.52;48.83
9110;BME280;4590;51.462;6.692;2023-05-18T00:08:28;102532.66;;;10.50;48.96
9110;BME280;4590;51.462;6.692;2023-05-18T00:10:55;102527.09;;;10.45;49.12
9110;BME280;4590;51.462;6.692;2023-05-18T00:13:21;102525.16;;;10.46;49.12
9110;BME280;4590;51.462;6.692;2023-05-18T00:15:46;102521.25;;;10.42;49.13
9110;BME280;4590;51.462;6.692;2023-05-18T00:18:12;102529.25;;;10.43;49.19
9110;BME280;4590;51.462;6.692;2023-05-18T00:20:37;102527.59;;;10.42;49.16
9110;BME280;4590;51.462;6.692;2023-05-18T00:23:03;102527.03;;;10.40;49.11
9110;BME280;4590;51.462;6.692;2023-05-18T00:25:30;102530.31;;;10.37;49.61
9110;BME280;4590;51.462;6.692;2023-05-18T00:27:55;102535.56;;;10.39;49.20
9110;BME280;4590;51.462;6.692;2023-05-18T00:30:20;102536.34;;;10.34;49.09
9110;BME280;4590;51.462;6.692;2023-05-18T00:32:48;102538.84;;;10.36;49.32
9110;BME280;4590;51.462;6.692;2023-05-18T00:35:14;102529.19;;;10.33;49.26
9110;BME280;4590;51.462;6.692;2023-05-18T00:37:39;102541.53;;;10.31;49.82
9110;BME280;4590;51.462;6.692;2023-05-18T00:40:05;102534.38;;;10.30;49.62
9110;BME280;4590;51.462;6.692;2023-05-18T00:42:31;102532.97;;;10.27;49.45
9110;BME280;4590;51.462;6.692;2023-05-18T00:44:56;102534.88;;;10.27;49.71
9110;BME280;4590;51.462;6.692;2023-05-18T00:47:21;102528.56;;;10.26;50.04
9110;BME280;4590;51.462;6.692;2023-05-18T00:49:47;102540.13;;;10.28;49.80
9110;BME280;4590;51.462;6.692;2023-05-18T00:52:13;102528.56;;;10.26;49.52
9110;BME280;4590;51.462;6.692;2023-05-18T00:54:39;102523.75;;;10.16;50.27
9110;BME280;4590;51.462;6.692;2023-05-18T00:57:05;102535.69;;;10.22;50.01
9110;BME280;4590;51.462;6.692;2023-05-18T00:59:31;102532.94;;;10.22;49.71
9110;BME280;4590;51.462;6.692;2023-05-18T01:01:57;102544.78;;;10.23;50.23
9110;BME280;4590;51.462;6.692;2023-05-18T01:04:22;102537.59;;;10.22;49.93
9110;BME280;4590;51.462;6.692;2023-05-18T01:06:48;102541.19;;;10.22;50.12
9110;BME280;4590;51.462;6.692;2023-05-18T01:09:15;102534.03;;;10.21;50.13
9110;BME280;4590;51.462;6.692;2023-05-18T01:11:51;102533.94;;;10.16;50.59
9110;BME280;4590;51.462;6.692;2023-05-18T01:14:24;102535.03;;;10.15;50.38
9110;BME280;4590;51.462;6.692;2023-05-18T01:28:15;102539.53;;;9.99;50.52
9110;BME280;4590;51.462;6.692;2023-05-18T01:30:42;102536.78;;;9.99;50.72
9110;BME280;4590;51.462;6.692;2023-05-18T01:33:09;102536.22;;;9.97;51.04
9110;BME280;4590;51.462;6.692;2023-05-18T01:35:35;102547.22;;;9.97;50.85
9110;BME280;4590;51.462;6.692;2023-05-18T01:38:01;102543.88;;;9.95;50.94
9110;BME280;4590;51.462;6.692;2023-05-18T01:40:32;102543.06;;;9.95;51.19
9110;BME280;4590;51.462;6.692;2023-05-18T01:43:08;102536.44;;;9.91;51.42
9110;BME280;4590;51.462;6.692;2023-05-18T01:45:39;102533.94;;;9.89;51.16
9110;BME280;4590;51.462;6.692;2023-05-18T01:48:09;102536.94;;;9.88;51.15
9110;BME280;4590;51.462;6.692;2023-05-18T01:50:56;102538.22;;;9.80;51.68
9110;BME280;4590;51.462;6.692;2023-05-18T01:53:32;102540.97;;;9.80;51.91
9110;BME280;4590;51.462;6.692;2023-05-18T01:56:07;102528.56;;;9.77;51.51
9110;BME280;4590;51.462;6.692;2023-05-18T01:58:34;102535.97;;;9.77;52.19
9110;BME280;4590;51.462;6.692;2023-05-18T02:00:59;102537.91;;;9.76;51.96
9110;BME280;4590;51.462;6.692;2023-05-18T02:03:25;102534.31;;;9.76;51.83
9110;BME280;4590;51.462;6.692;2023-05-18T02:05:50;102540.09;;;9.74;51.76
9110;BME280;4590;51.462;6.692;2023-05-18T02:08:16;102532.63;;;9.70;52.16
9110;BME280;4590;51.462;6.692;2023-05-18T02:10:43;102527.38;;;9.68;51.92
9110;BME280;4590;51.462;6.692;2023-05-18T02:13:09;102532.03;;;9.68;51.66
9110;BME280;4590;51.462;6.692;2023-05-18T02:15:34;102535.28;;;9.65;52.66
9110;BME280;4590;51.462;6.692;2023-05-18T02:18:00;102542.97;;;9.63;52.56
9110;BME280;4590;51.462;6.692;2023-05-18T02:20:26;102532.50;;;9.60;52.19
9110;BME280;4590;51.462;6.692;2023-05-18T02:22:56;102545.91;;;9.56;52.47
9110;BME280;4590;51.462;6.692;2023-05-18T02:25:29;102541.94;;;9.47;52.36
9110;BME280;4590;51.462;6.692;2023-05-18T02:27:55;102540.28;;;9.46;52.68
9110;BME280;4590;51.462;6.692;2023-05-18T02:30:21;102539.13;;;9.42;52.92
9110;BME280;4590;51.462;6.692;2023-05-18T02:32:46;102533.81;;;9.35;52.80
9110;BME280;4590;51.462;6.692;2023-05-18T02:35:14;102542.31;;;9.34;52.90
9110;BME280;4590;51.462;6.692;2023-05-18T02:37:40;102539.81;;;9.32;53.27
9110;BME280;4590;51.462;6.692;2023-05-18T02:40:09;102541.47;;;9.33;53.16
9110;BME280;4590;51.462;6.692;2023-05-18T02:42:35;102547.47;;;9.30;53.22
9110;BME280;4590;51.462;6.692;2023-05-18T02:45:00;102543.91;;;9.30;53.04
9110;BME280;4590;51.462;6.692;2023-05-18T02:47:26;102550.47;;;9.29;53.32
9110;BME280;4590;51.462;6.692;2023-05-18T02:49:52;102545.25;;;9.27;53.37
9110;BME280;4590;51.462;6.692;2023-05-18T02:52:17;102551.84;;;9.26;53.57
9110;BME280;4590;51.462;6.692;2023-05-18T02:54:44;102551.25;;;9.24;53.74
9110;BME280;4590;51.462;6.692;2023-05-18T02:57:15;102547.94;;;9.22;53.52
9110;BME280;4590;51.462;6.692;2023-05-18T02:59:41;102551.50;;;9.23;53.72
9110;BME280;4590;51.462;6.692;2023-05-18T03:02:07;102552.00;;;9.20;53.61
9110;BME280;4590;51.462;6.692;2023-05-18T03:04:32;102545.34;;;9.15;53.73
9110;BME280;4590;51.462;6.692;2023-05-18T03:06:58;102546.44;;;9.14;53.91
9110;BME280;4590;51.462;6.692;2023-05-18T03:09:27;102545.88;;;9.12;54.13
9110;BME280;4590;51.462;6.692;2023-05-18T03:11:52;102549.13;;;9.09;53.67
9110;BME280;4590;51.462;6.692;2023-05-18T03:14:17;102547.72;;;9.07;54.20
9110;BME280;4590;51.462;6.692;2023-05-18T03:16:43;102550.38;;;9.02;54.26
9110;BME280;4590;51.462;6.692;2023-05-18T03:19:09;102552.22;;;8.96;54.37
9110;BME280;4590;51.462;6.692;2023-05-18T03:21:34;102549.22;;;8.98;54.29
9110;BME280;4590;51.462;6.692;2023-05-18T03:24:01;102547.81;;;8.95;54.45
9110;BME280;4590;51.462;6.692;2023-05-18T03:26:28;102545.72;;;8.86;56.04
9110;BME280;4590;51.462;6.692;2023-05-18T03:28:58;102548.06;;;8.94;54.26
9110;BME280;4590;51.462;6.692;2023-05-18T03:31:24;102546.06;;;8.89;54.75
9110;BME280;4590;51.462;6.692;2023-05-18T03:33:49;102549.56;;;8.85;54.99
9110;BME280;4590;51.462;6.692;2023-05-18T03:36:15;102544.06;;;8.85;54.79
9110;BME280;4590;51.462;6.692;2023-05-18T03:38:40;102546.22;;;8.83;54.40
9110;BME280;4590;51.462;6.692;2023-05-18T03:41:10;102545.16;;;8.84;55.42
9110;BME280;4590;51.462;6.692;2023-05-18T03:43:35;102544.31;;;8.83;54.82
9110;BME280;4590;51.462;6.692;2023-05-18T03:46:00;102544.56;;;8.82;55.12
9110;BME280;4590;51.462;6.692;2023-05-18T03:48:26;102543.47;;;8.83;55.09
9110;BME280;4590;51.462;6.692;2023-05-18T03:50:51;102543.19;;;8.79;55.43
9110;BME280;4590;51.462;6.692;2023-05-18T03:53:16;102542.59;;;8.77;55.31
9110;BME280;4590;51.462;6.692;2023-05-18T03:55:44;102544.50;;;8.76;55.09
9110;BME280;4590;51.462;6.692;2023-05-18T03:58:09;102543.66;;;8.76;55.44
9110;BME280;4590;51.462;6.692;2023-05-18T04:00:34;102538.44;;;8.74;55.57
9110;BME280;4590;51.462;6.692;2023-05-18T04:03:00;102541.41;;;8.73;55.55
9110;BME280;4590;51.462;6.692;2023-05-18T04:05:27;102541.41;;;8.73;55.64
9110;BME280;4590;51.462;6.692;2023-05-18T04:07:53;102548.81;;;8.72;55.59
9110;BME280;4590;51.462;6.692;2023-05-18T04:10:22;102556.22;;;8.72;55.57
9110;BME280;4590;51.462;6.692;2023-05-18T04:12:48;102558.97;;;8.72;55.75
9110;BME280;4590;51.462;6.692;2023-05-18T04:15:13;102562.28;;;8.74;55.37
9110;BME280;4590;51.462;6.692;2023-05-18T04:17:39;102564.22;;;8.73;55.68
9110;BME280;4590;51.462;6.692;2023-05-18T04:20:10;102562.53;;;8.72;55.79
9110;BME280;4590;51.462;6.692;2023-05-18T04:22:41;102566.38;;;8.71;55.55
9110;BME280;4590;51.462;6.692;2023-05-18T04:25:08;102555.16;;;8.73;55.93
9110;BME280;4590;51.462;6.692;2023-05-18T04:27:35;102565.28;;;8.72;55.79
9110;BME280;4590;51.462;6.692;2023-05-18T04:30:01;102571.13;;;8.76;55.73
9110;BME280;4590;51.462;6.692;2023-05-18T04:32:26;102565.03;;;8.74;55.93
9110;BME280;4590;51.462;6.692;2023-05-18T04:34:58;102569.13;;;8.71;55.88
9110;BME280;4590;51.462;6.692;2023-05-18T04:37:25;102573.28;;;8.74;55.96
9110;BME280;4590;51.462;6.692;2023-05-18T04:39:51;102566.38;;;8.71;56.15
9110;BME280;4590;51.462;6.692;2023-05-18T04:42:19;102578.19;;;8.72;56.21
9110;BME280;4590;51.462;6.692;2023-05-18T04:44:45;102583.91;;;8.70;56.64
9110;BME280;4590;51.462;6.692;2023-05-18T04:47:12;102588.91;;;8.73;56.08
9110;BME280;4590;51.462;6.692;2023-05-18T04:49:38;102587.91;;;8.79;55.99
9110;BME280;4590;51.462;6.692;2023-05-18T04:52:04;102585.72;;;8.82;55.98
9110;BME280;4590;51.462;6.692;2023-05-18T04:54:32;102588.31;;;8.71;56.78
9110;BME280;4590;51.462;6.692;2023-05-18T04:57:00;102584.84;;;8.76;56.65
9110;BME280;4590;51.462;6.692;2023-05-18T04:59:27;102584.16;;;8.86;56.58
9110;BME280;4590;51.462;6.692;2023-05-18T05:01:53;102585.59;;;8.88;56.18
9110;BME280;4590;51.462;6.692;2023-05-18T05:04:21;102587.75;;;8.86;56.30
9110;BME280;4590;51.462;6.692;2023-05-18T05:06:47;102586.50;;;8.94;56.16
9110;BME280;4590;51.462;6.692;2023-05-18T05:09:13;102582.16;;;8.98;56.38
9110;BME280;4590;51.462;6.692;2023-05-18T05:11:40;102585.44;;;8.95;56.35
9110;BME280;4590;51.462;6.692;2023-05-18T05:14:26;102577.09;;;8.90;57.07
9110;BME280;4590;51.462;6.692;2023-05-18T05:16:51;102591.50;;;8.97;56.40
9110;BME280;4590;51.462;6.692;2023-05-18T05:19:17;102576.09;;;8.96;56.25
9110;BME280;4590;51.462;6.692;2023-05-18T05:21:42;102577.91;;;9.07;56.13
9110;BME280;4590;51.462;6.692;2023-05-18T05:24:07;102591.91;;;9.05;56.14
9110;BME280;4590;51.462;6.692;2023-05-18T05:26:33;102575.50;;;9.10;56.02
9110;BME280;4590;51.462;6.692;2023-05-18T05:28:59;102586.38;;;9.22;55.78
9110;BME280;4590;51.462;6.692;2023-05-18T05:31:24;102582.88;;;9.27;55.86
9110;BME280;4590;51.462;6.692;2023-05-18T05:33:49;102579.31;;;9.26;56.24
9110;BME280;4590;51.462;6.692;2023-05-18T05:36:15;102579.09;;;9.33;55.92
9110;BME280;4590;51.462;6.692;2023-05-18T05:38:40;102574.06;;;9.46;55.69
9110;BME280;4590;51.462;6.692;2023-05-18T05:41:06;102584.06;;;9.53;55.90
9110;BME280;4590;51.462;6.692;2023-05-18T05:43:31;102579.84;;;9.67;55.94
9110;BME280;4590;51.462;6.692;2023-05-18T05:45:57;102576.97;;;9.78;55.11
9110;BME280;4590;51.462;6.692;2023-05-18T05:48:22;102576.56;;;9.92;54.77
9110;BME280;4590;51.462;6.692;2023-05-18T05:50:47;102583.03;;;10.02;54.61
9110;BME280;4590;51.462;6.692;2023-05-18T05:53:14;102578.72;;;10.11;54.30
9110;BME280;4590;51.462;6.692;2023-05-18T05:55:43;102577.50;;;10.24;54.14
9110;BME280;4590;51.462;6.692;2023-05-18T05:58:09;102583.69;;;10.36;53.92
9110;BME280;4590;51.462;6.692;2023-05-18T06:00:34;102579.13;;;10.47;53.54
9110;BME280;4590;51.462;6.692;2023-05-18T06:03:00;102585.59;;;10.63;53.67
9110;BME280;4590;51.462;6.692;2023-05-18T06:50:26;102590.72;;;12.68;46.49
9110;BME280;4590;51.462;6.692;2023-05-18T07:06:22;102589.28;;;13.42;46.04
9110;BME280;4590;51.462;6.692;2023-05-18T07:24:40;102587.53;;;14.20;44.17
9110;BME280;4590;51.462;6.692;2023-05-18T10:10:55;102539.53;;;18.69;31.37
9110;BME280;4590;51.462;6.692;2023-05-18T10:13:24;102542.13;;;18.87;32.20
9110;BME280;4590;51.462;6.692;2023-05-18T10:15:54;102540.88;;;19.02;32.62
9110;BME280;4590;51.462;6.692;2023-05-18T11:02:20;102489.31;;;19.31;31.02
9110;BME280;4590;51.462;6.692;2023-05-18T11:05:09;102483.91;;;19.34;31.34
9110;BME280;4590;51.462;6.692;2023-05-18T11:16:02;102490.78;;;19.37;30.61
9110;BME280;4590;51.462;6.692;2023-05-18T11:18:45;102484.72;;;19.35;30.81
9110;BME280;4590;51.462;6.692;2023-05-18T11:36:11;102502.16;;;18.70;31.50
9110;BME280;4590;51.462;6.692;2023-05-18T12:08:59;102447.22;;;18.26;33.13
9110;BME280;4590;51.462;6.692;2023-05-18T12:11:51;102451.47;;;18.23;33.01
9110;BME280;4590;51.462;6.692;2023-05-18T12:43:57;102431.53;;;17.71;33.91
9110;BME280;4590;51.462;6.692;2023-05-18T12:46:23;102427.44;;;17.55;34.47
9110;BME280;4590;51.462;6.692;2023-05-18T12:48:58;102429.44;;;17.63;34.02
9110;BME280;4590;51.462;6.692;2023-05-18T12:51:31;102428.25;;;17.69;34.12
9110;BME280;4590;51.462;6.692;2023-05-18T12:53:57;102435.97;;;17.72;34.10
9110;BME280;4590;51.462;6.692;2023-05-18T12:56:53;102439.59;;;17.59;33.97
9110;BME280;4590;51.462;6.692;2023-05-18T13:04:41;102426.44;;;17.37;34.59
9110;BME280;4590;51.462;6.692;2023-05-18T14:44:44;102334.16;;;17.80;33.63
9110;BME280;4590;51.462;6.692;2023-05-18T14:47:12;102342.84;;;17.78;32.91
9110;BME280;4590;51.462;6.692;2023-05-18T14:49:38;102331.56;;;17.83;32.55
9110;BME280;4590;51.462;6.692;2023-05-18T14:52:04;102337.97;;;17.84;32.12
9110;BME280;4590;51.462;6.692;2023-05-18T14:54:31;102339.78;;;17.66;32.31
9110;BME280;4590;51.462;6.692;2023-05-18T14:56:56;102335.63;;;17.77;32.21
9110;BME280;4590;51.462;6.692;2023-05-18T14:59:21;102343.09;;;17.68;32.30
9110;BME280;4590;51.462;6.692;2023-05-18T15:01:47;102345.13;;;17.76;32.74
9110;BME280;4590;51.462;6.692;2023-05-18T15:04:13;102331.94;;;17.68;33.07
9110;BME280;4590;51.462;6.692;2023-05-18T15:06:39;102336.06;;;17.71;33.43
9110;BME280;4590;51.462;6.692;2023-05-18T15:09:05;102328.34;;;17.68;33.25
9110;BME280;4590;51.462;6.692;2023-05-18T15:11:30;102333.59;;;17.69;32.93
9110;BME280;4590;51.462;6.692;2023-05-18T15:13:55;102329.06;;;17.60;32.82
9110;BME280;4590;51.462;6.692;2023-05-18T15:16:21;102325.34;;;17.64;32.02
9110;BME280;4590;51.462;6.692;2023-05-18T15:18:46;102333.19;;;17.62;32.33
9110;BME280;4590;51.462;6.692;2023-05-18T15:21:12;102327.63;;;17.62;32.03
9110;BME280;4590;51.462;6.692;2023-05-18T15:23:38;102342.28;;;17.54;32.26
9110;BME280;4590;51.462;6.692;2023-05-18T15:26:04;102330.31;;;17.53;32.50
9110;BME280;4590;51.462;6.692;2023-05-18T15:28:29;102329.41;;;17.58;32.51
9110;BME280;4590;51.462;6.692;2023-05-18T15:30:55;102332.38;;;17.62;32.90
9110;BME280;4590;51.462;6.692;2023-05-18T15:33:21;102327.31;;;17.64;32.79
9110;BME280;4590;51.462;6.692;2023-05-18T15:35:46;102334.03;;;17.63;32.96
9110;BME280;4590;51.462;6.692;2023-05-18T15:38:11;102323.41;;;17.65;32.96
9110;BME280;4590;51.462;6.692;2023-05-18T15:40:37;102332.88;;;17.64;32.63
9110;BME280;4590;51.462;6.692;2023-05-18T15:43:02;102331.94;;;17.68;32.52
9110;BME280;4590;51.462;6.692;2023-05-18T15:45:27;102329.25;;;17.63;32.45
9110;BME280;4590;51.462;6.692;2023-05-18T15:47:53;102326.06;;;17.70;32.37
9110;BME280;4590;51.462;6.692;2023-05-18T15:50:19;102330.81;;;17.69;32.17
9110;BME280;4590;51.462;6.692;2023-05-18T15:52:44;102321.31;;;17.70;32.33
9110;BME280;4590;51.462;6.692;2023-05-18T15:55:11;102321.94;;;17.67;32.45
9110;BME280;4590;51.462;6.692;2023-05-18T15:57:40;102320.91;;;17.63;32.60
9110;BME280;4590;51.462;6.692;2023-05-18T16:02:59;102314.84;;;17.61;32.73
9110;BME280;4590;51.462;6.692;2023-05-18T16:05:25;102311.44;;;17.64;32.55
9110;BME280;4590;51.462;6.692;2023-05-18T16:07:50;102306.78;;;17.73;32.57
9110;BME280;4590;51.462;6.692;2023-05-18T16:10:15;102314.81;;;17.75;32.89
9110;BME280;4590;51.462;6.692;2023-05-18T16:12:42;102306.16;;;17.76;32.50
9110;BME280;4590;51.462;6.692;2023-05-18T16:15:08;102309.56;;;17.73;32.54
9110;BME280;4590;51.462;6.692;2023-05-18T16:17:33;102304.97;;;17.55;32.49
9110;BME280;4590;51.462;6.692;2023-05-18T16:19:58;102302.25;;;17.64;32.25
9110;BME280;4590;51.462;6.692;2023-05-18T16:22:25;102298.84;;;17.67;32.71
9110;BME280;4590;51.462;6.692;2023-05-18T16:24:52;102297.91;;;17.71;32.38
9110;BME280;4590;51.462;6.692;2023-05-18T16:30:21;102297.38;;;17.47;32.71
9110;BME280;4590;51.462;6.692;2023-05-18T16:32:47;102298.78;;;17.58;32.84
9110;BME280;4590;51.462;6.692;2023-05-18T16:35:14;102298.78;;;17.58;32.86
9110;BME280;4590;51.462;6.692;2023-05-18T16:38:01;102306.94;;;17.54;33.13
9110;BME280;4590;51.462;6.692;2023-05-18T16:40:27;102289.28;;;17.59;33.12
9110;BME280;4590;51.462;6.692;2023-05-18T16:42:52;102296.50;;;17.60;33.29
9110;BME280;4590;51.462;6.692;2023-05-18T16:45:18;102297.00;;;17.62;33.35
9110;BME280;4590;51.462;6.692;2023-05-18T16:47:45;102309.59;;;17.60;33.62
9110;BME280;4590;51.462;6.692;2023-05-18T16:50:15;102311.78;;;17.49;33.55
9110;BME280;4590;51.462;6.692;2023-05-18T16:52:40;102290.94;;;17.60;33.34
9110;BME280;4590;51.462;6.692;2023-05-18T16:55:08;102300.94;;;17.61;33.38
9110;BME280;4590;51.462;6.692;2023-05-18T16:57:44;102293.53;;;17.57;33.45
9110;BME280;4590;51.462;6.692;2023-05-18T17:02:46;102293.72;;;17.60;33.57
9110;BME280;4590;51.462;6.692;2023-05-18T17:07:49;102287.84;;;17.62;33.75
9110;BME280;4590;51.462;6.692;2023-05-18T17:10:15;102297.75;;;17.54;34.01
9110;BME280;4590;51.462;6.692;2023-05-18T17:12:41;102291.38;;;17.53;33.98
9110;BME280;4590;51.462;6.692;2023-05-18T17:15:08;102286.94;;;17.52;33.79
9110;BME280;4590;51.462;6.692;2023-05-18T17:17:40;102287.75;;;17.53;33.76
9110;BME280;4590;51.462;6.692;2023-05-18T17:20:19;102288.25;;;17.33;33.92
9110;BME280;4590;51.462;6.692;2023-05-18T17:22:46;102293.94;;;17.50;33.86
9110;BME280;4590;51.462;6.692;2023-05-18T17:25:11;102287.19;;;17.42;34.19
9110;BME280;4590;51.462;6.692;2023-05-18T17:27:37;102282.66;;;17.46;34.34
9110;BME280;4590;51.462;6.692;2023-05-18T17:30:03;102284.63;;;17.32;34.30
9110;BME280;4590;51.462;6.692;2023-05-18T17:32:29;102284.00;;;17.35;34.19
9110;BME280;4590;51.462;6.692;2023-05-18T17:34:54;102284.53;;;17.37;34.28
9110;BME280;4590;51.462;6.692;2023-05-18T17:37:20;102301.56;;;17.22;34.72
9110;BME280;4590;51.462;6.692;2023-05-18T17:39:45;102288.19;;;17.24;34.44
9110;BME280;4590;51.462;6.692;2023-05-18T17:42:17;102280.25;;;17.17;34.34
9110;BME280;4590;51.462;6.692;2023-05-18T17:44:43;102291.78;;;17.25;34.45
9110;BME280;4590;51.462;6.692;2023-05-18T17:47:09;102289.00;;;17.25;34.67
9110;BME280;4590;51.462;6.692;2023-05-18T17:49:35;102286.34;;;17.19;34.76
9110;BME280;4590;51.462;6.692;2023-05-18T17:52:02;102282.72;;;17.19;35.02
9110;BME280;4590;51.462;6.692;2023-05-18T17:54:27;102280.59;;;17.02;35.21
9110;BME280;4590;51.462;6.692;2023-05-18T17:57:30;102282.88;;;17.14;35.00
9110;BME280;4590;51.462;6.692;2023-05-18T17:59:56;102287.09;;;17.11;35.23
9110;BME280;4590;51.462;6.692;2023-05-18T18:02:22;102291.09;;;17.05;35.20
9110;BME280;4590;51.462;6.692;2023-05-18T18:05:09;102285.66;;;17.00;35.28
9110;BME280;4590;51.462;6.692;2023-05-18T18:19:19;102292.41;;;16.72;35.27
9110;BME280;4590;51.462;6.692;2023-05-18T18:21:45;102288.38;;;16.78;35.26
9110;BME280;4590;51.462;6.692;2023-05-18T18:24:13;102286.94;;;16.80;35.40
9110;BME280;4590;51.462;6.692;2023-05-18T18:30:51;102295.31;;;16.67;35.61
9110;BME280;4590;51.462;6.692;2023-05-18T18:33:21;102292.72;;;16.70;35.55
9110;BME280;4590;51.462;6.692;2023-05-18T18:36:57;102296.75;;;16.64;35.79
9110;BME280;4590;51.462;6.692;2023-05-18T18:53:40;102302.56;;;16.35;36.24
9110;BME280;4590;51.462;6.692;2023-05-18T18:56:08;102305.16;;;16.45;36.16
9110;BME280;4590;51.462;6.692;2023-05-18T18:58:34;102306.56;;;16.43;36.20
9110;BME280;4590;51.462;6.692;2023-05-18T19:00:59;102305.44;;;16.30;36.24
9110;BME280;4590;51.462;6.692;2023-05-18T19:03:25;102311.63;;;16.41;36.17
9110;BME280;4590;51.462;6.692;2023-05-18T19:05:51;102310.28;;;16.38;36.01
9110;BME280;4590;51.462;6.692;2023-05-18T19:08:20;102302.88;;;16.34;36.91
9110;BME280;4590;51.462;6.692;2023-05-18T19:10:46;102309.25;;;16.34;36.69
9110;BME280;4590;51.462;6.692;2023-05-18T19:13:11;102324.66;;;16.27;36.63
9110;BME280;4590;51.462;6.692;2023-05-18T19:15:36;102318.59;;;16.25;36.88
9110;BME280;4590;51.462;6.692;2023-05-18T19:18:02;102319.94;;;16.27;36.96
9110;BME280;4590;51.462;6.692;2023-05-18T19:20:27;102318.91;;;16.23;37.05
9110;BME280;4590;51.462;6.692;2023-05-18T19:23:18;102322.47;;;16.10;37.33
9110;BME280;4590;51.462;6.692;2023-05-18T19:25:45;102320.13;;;16.17;37.18
9110;BME280;4590;51.462;6.692;2023-05-18T19:28:11;102318.78;;;16.14;37.35
9110;BME280;4590;51.462;6.692;2023-05-18T19:30:36;102328.25;;;16.13;37.26
9110;BME280;4590;51.462;6.692;2023-05-18T19:33:01;102329.16;;;16.09;37.66
9110;BME280;4590;51.462;6.692;2023-05-18T19:35:27;102338.63;;;16.08;38.02
9110;BME280;4590;51.462;6.692;2023-05-18T19:37:52;102331.75;;;16.05;37.99
9110;BME280;4590;51.462;6.692;2023-05-18T19:40:18;102342.09;;;16.00;38.30
9110;BME280;4590;51.462;6.692;2023-05-18T19:42:45;102341.59;;;15.98;38.48
9110;BME280;4590;51.462;6.692;2023-05-18T19:45:10;102346.91;;;15.94;38.26
9110;BME280;4590;51.462;6.692;2023-05-18T19:47:36;102345.78;;;15.95;38.50
9110;BME280;4590;51.462;6.692;2023-05-18T19:50:01;102349.16;;;15.92;38.46
9110;BME280;4590;51.462;6.692;2023-05-18T19:52:27;102355.66;;;15.88;38.88
9110;BME280;4590;51.462;6.692;2023-05-18T19:54:52;102362.63;;;15.85;38.79
9110;BME280;4590;51.462;6.692;2023-05-18T19:57:18;102357.06;;;15.85;38.67
9110;BME280;4590;51.462;6.692;2023-05-18T19:59:46;102355.78;;;15.77;38.88
9110;BME280;4590;51.462;6.692;2023-05-18T20:02:11;102366.28;;;15.81;39.27
9110;BME280;4590;51.462;6.692;2023-05-18T20:04:36;102358.56;;;15.77;39.28
9110;BME280;4590;51.462;6.692;2023-05-18T20:07:02;102361.81;;;15.66;39.96
9110;BME280;4590;51.462;6.692;2023-05-18T20:09:28;102367.81;;;15.73;39.74
9110;BME280;4590;51.462;6.692;2023-05-18T20:11:54;102370.91;;;15.71;39.46
9110;BME280;4590;51.462;6.692;2023-05-18T20:14:20;102361.75;;;15.71;39.38
9110;BME280;4590;51.462;6.692;2023-05-18T20:16:46;102364.28;;;15.67;39.48
9110;BME280;4590;51.462;6.692;2023-05-18T20:19:13;102365.19;;;15.63;39.72
9110;BME280;4590;51.462;6.692;2023-05-18T20:21:39;102375.75;;;15.61;39.68
9110;BME280;4590;51.462;6.692;2023-05-18T20:24:07;102378.06;;;15.54;40.08
9110;BME280;4590;51.462;6.692;2023-05-18T20:26:33;102373.94;;;15.51;40.07
9110;BME280;4590;51.462;6.692;2023-05-18T20:28:58;102372.28;;;15.50;39.99
9110;BME280;4590;51.462;6.692;2023-05-18T20:31:23;102376.41;;;15.53;40.33
9110;BME280;4590;51.462;6.692;2023-05-18T20:33:48;102373.41;;;15.49;40.35
9110;BME280;4590;51.462;6.692;2023-05-18T20:36:14;102377.47;;;15.38;40.68
9110;BME280;4590;51.462;6.692;2023-05-18T20:38:39;102383.00;;;15.38;40.70
9110;BME280;4590;51.462;6.692;2023-05-18T20:41:08;102378.72;;;15.27;41.38
9110;BME280;4590;51.462;6.692;2023-05-18T20:43:34;102379.19;;;15.34;40.43
9110;BME280;4590;51.462;6.692;2023-05-18T20:46:05;102381.41;;;15.32;40.71
9110;BME280;4590;51.462;6.692;2023-05-18T20:48:32;102387.94;;;15.22;41.17
9110;BME280;4590;51.462;6.692;2023-05-18T20:50:58;102384.63;;;15.20;41.08
9110;BME280;4590;51.462;6.692;2023-05-18T20:53:25;102389.13;;;15.16;41.26
9110;BME280;4590;51.462;6.692;2023-05-18T20:55:50;102389.41;;;15.15;41.27
9110;BME280;4590;51.462;6.692;2023-05-18T20:58:18;102389.41;;;15.15;41.17
9110;BME280;4590;51.462;6.692;2023-05-18T21:00:44;102395.25;;;15.13;41.08
9110;BME280;4590;51.462;6.692;2023-05-18T21:03:13;102392.47;;;15.13;41.48
9110;BME280;4590;51.462;6.692;2023-05-18T21:05:39;102395.25;;;15.13;41.51
9110;BME280;4590;51.462;6.692;2023-05-18T21:08:05;102389.03;;;15.02;41.63
9110;BME280;4590;51.462;6.692;2023-05-18T21:10:31;102398.69;;;15.05;41.55
9110;BME280;4590;51.462;6.692;2023-05-18T21:12:57;102392.31;;;15.04;41.48
9110;BME280;4590;51.462;6.692;2023-05-18T21:15:23;102395.75;;;14.96;42.01
9110;BME280;4590;51.462;6.692;2023-05-18T21:17:48;102389.63;;;14.99;41.90
9110;BME280;4590;51.462;6.692;2023-05-18T21:20:14;102384.66;;;14.96;41.80
9110;BME280;4590;51.462;6.692;2023-05-18T21:22:40;102394.16;;;14.90;41.78
9110;BME280;4590;51.462;6.692;2023-05-18T21:25:05;102394.75;;;14.87;41.58
9110;BME280;4590;51.462;6.692;2023-05-18T21:27:31;102399.53;;;14.82;41.56
9110;BME280;4590;51.462;6.692;2023-05-18T21:29:57;102401.75;;;14.80;41.58
9110;BME280;4590;51.462;6.692;2023-05-18T21:32:23;102404.03;;;14.78;41.73
9110;BME280;4590;51.462;6.692;2023-05-18T21:34:48;102403.41;;;14.81;41.50
9110;BME280;4590;51.462;6.692;2023-05-18T21:37:14;102400.97;;;14.79;41.73
9110;BME280;4590;51.462;6.692;2023-05-18T21:39:39;102400.44;;;14.77;41.57
9110;BME280;4590;51.462;6.692;2023-05-18T21:42:08;102398.81;;;14.71;41.82
9110;BME280;4590;51.462;6.692;2023-05-18T21:44:33;102397.28;;;14.60;41.92
9110;BME280;4590;51.462;6.692;2023-05-18T21:46:59;102391.75;;;14.60;41.62
9110;BME280;4590;51.462;6.692;2023-05-18T21:49:24;102393.72;;;14.54;41.86
9110;BME280;4590;51.462;6.692;2023-05-18T21:51:50;102397.91;;;14.52;41.80
9110;BME280;4590;51.462;6.692;2023-05-18T21:54:15;102390.19;;;14.49;42.15
9110;BME280;4590;51.462;6.692;2023-05-18T21:56:41;102387.47;;;14.44;42.01